Aérodrome :
LOGIN :

S'inscrire | Disclaimer

   EN    FR    IT 

 










Légende :    VFR   VFR Marginal   IFR   IFR Intensif   IFR Très Intensif
Visi : 
Plafond : 
>= 8 km
>= 3000ft
5 à 8 km
1000 à 3000 ft
1500m à 5 km
500 à 1000 ft
800 à 1500m
200 à 500 ft
< 800m
< 200 ft
Symboles :   Orages  Brouillard  Fortes neiges  Fortes précipitations  Vent > 20 kt
SIGMETs :   Divers  Orages  Givrage  Turbulence  Onde Orograph.  Cendres Volcan.







- Altitude de l'aérodrome : 102 ft
- Code IATA : CNG
- Voir les cartes d'approche


LFBG - Cognac

DERNIER METAR :
  • 172300Z AUTO 35005KT CAVOK 18/14 Q1019

METARs EXPIRÉS :
  • 172230Z AUTO 34007KT CAVOK 19/14 Q1019
  • 172200Z AUTO 33008KT CAVOK 19/14 Q1019 NOSIG
  • 172130Z AUTO 33009KT CAVOK 20/14 Q1019 NOSIG
  • 172100Z AUTO 36003KT CAVOK 21/17 Q1019 NOSIG
  • 172030Z AUTO 02003KT CAVOK 22/17 Q1019 NOSIG

TAF TAF LFBG
Valide du 17 à 21h jusqu'au 18 à 21h UTC


172000Z 1721/1821 35005KT CAVOK
TEMPO 1812/1816 5000 SHRA BKN060TCU
Pas de NOTAMs connus pour ce terrain.



MET'MAP, la Météo Aéronautique d'un coup d'oeil ! - Copyright ORBIFLY Décembre 2007 - Disclaimer

ORBIFLY MET'MAP TEAM :

Programmation & Développement : Alexandra Zaïnal
Conception & Développement : Baudouin d'Aumeries
Co-Programmation & Développement : Marc-Olivier Méhu
Soutien technique & logistique : Manuel Goepfert

Contact : metmap@orbifly.com




SOURCES & CREDITS :

   NOAA